Time;durP1;ratioP1;P1;durP2;ratioP2;P2;SDS_P1;SDS_P2;PMS_P1;PMS_P2;Temp;Humidity;BMP_temperature;BMP_pressure;BME280_temperature;BME280_humidity;BME280_pressure;Samples;Min_cycle;Max_cycle;Signal;HPM_P1;HPM_P2
2022/07/19 04:02:34;;;;;;;7.57;4.38;;;;;;;17.87;50.25;99179.66;2601765;46;20034;-65
2022/07/19 04:05:04;;;;;;;6.33;3.60;;;;;;;17.83;50.98;99183.84;2619947;54;20018;-66
2022/07/19 04:07:34;;;;;;;5.38;4.40;;;;;;;17.83;50.72;99178.50;2621071;54;20014;-65
2022/07/19 04:10:04;;;;;;;5.25;4.15;;;;;;;17.86;50.97;99178.03;2621210;54;20130;-65
2022/07/19 04:12:34;;;;;;;7.28;4.20;;;;;;;17.87;50.96;99184.19;2621081;47;20034;-66
2022/07/19 04:15:04;;;;;;;7.45;4.07;;;;;;;17.82;51.28;99182.22;2621187;54;20129;-66
2022/07/19 04:17:36;;;;;;;8.63;3.88;;;;;;;17.86;51.04;99187.94;2621561;54;20030;-66
2022/07/19 04:20:08;;;;;;;5.63;4.00;;;;;;;17.84;51.56;99190.84;2620554;47;20026;-66
2022/07/19 04:22:37;;;;;;;5.75;4.20;;;;;;;17.98;50.87;99191.44;2621439;54;20027;-67
2022/07/19 04:25:08;;;;;;;4.07;3.70;;;;;;;18.07;50.70;99192.72;2622804;39;20440;-66
2022/07/19 04:27:38;;;;;;;6.40;4.47;;;;;;;18.08;51.13;99186.31;2620392;54;20125;-66
2022/07/19 04:30:09;;;;;;;5.43;4.20;;;;;;;18.15;50.42;99189.69;2619646;47;20045;-65
2022/07/19 04:32:42;;;;;;;7.40;4.18;;;;;;;18.18;50.36;99189.25;2619925;47;20031;-65
2022/07/19 04:35:11;;;;;;;7.55;3.97;;;;;;;18.06;51.13;99191.09;2620673;31;20536;-67
2022/07/19 04:37:41;;;;;;;8.15;4.35;;;;;;;18.11;51.03;99188.53;2620005;39;20437;-66
2022/07/19 04:40:11;;;;;;;8.32;4.05;;;;;;;18.08;51.10;99186.31;2620298;54;20034;-67
2022/07/19 04:42:41;;;;;;;7.90;4.50;;;;;;;18.09;50.83;99195.19;2620005;54;20146;-67
2022/07/19 04:45:12;;;;;;;11.25;4.40;;;;;;;18.10;51.17;99194.13;2620010;54;20045;-67
2022/07/19 04:47:44;;;;;;;6.03;3.70;;;;;;;18.26;50.74;99191.56;2619549;54;20053;-67
2022/07/19 04:50:14;;;;;;;7.20;4.40;;;;;;;18.34;50.56;99189.59;2620106;31;20459;-65
2022/07/19 04:52:44;;;;;;;8.82;4.22;;;;;;;18.43;50.57;99183.63;2619688;54;20042;-66
2022/07/19 04:55:14;;;;;;;6.85;4.32;;;;;;;18.51;50.01;99185.97;2619574;54;20030;-66
2022/07/19 04:57:44;;;;;;;8.27;4.00;;;;;;;18.55;50.28;99183.63;2620331;54;20632;-65
2022/07/19 05:00:14;;;;;;;4.95;4.30;;;;;;;18.71;49.60;99180.25;2618435;54;20027;-66
2022/07/19 05:02:46;;;;;;;6.70;4.10;;;;;;;18.85;49.46;99185.34;2617506;54;20077;-66
2022/07/19 05:05:16;;;;;;;6.22;4.15;;;;;;;19.06;49.00;99182.00;2618933;54;20026;-66
2022/07/19 05:07:46;;;;;;;11.80;4.18;;;;;;;19.16;48.35;99184.91;2618246;47;20030;-66
2022/07/19 05:10:16;;;;;;;9.52;4.88;;;;;;;19.35;48.13;99185.53;2618291;54;20030;-66
2022/07/19 05:12:46;;;;;;;6.90;3.88;;;;;;;19.41;48.26;99179.19;2618322;54;20019;-65
2022/07/19 05:15:15;;;;;;;6.88;4.00;;;;;;;19.69;47.87;99177.56;2618072;54;20030;-65
2022/07/19 05:17:47;;;;;;;6.22;3.90;;;;;;;19.92;47.31;99173.88;2617636;54;20538;-65
2022/07/19 05:20:17;;;;;;;9.63;4.40;;;;;;;20.03;46.44;99176.50;2618164;54;20038;-66
2022/07/19 05:22:47;;;;;;;8.25;4.30;;;;;;;20.06;45.87;99169.84;2617897;54;20046;-67
2022/07/19 05:25:17;;;;;;;5.10;3.67;;;;;;;20.12;46.13;99170.72;2618122;54;20118;-66
2022/07/19 05:27:47;;;;;;;6.03;3.63;;;;;;;20.25;45.87;99173.88;2619785;31;20524;-66
2022/07/19 05:30:17;;;;;;;7.35;3.70;;;;;;;20.46;45.88;99169.59;2617277;47;20034;-67
2022/07/19 05:32:49;;;;;;;8.80;4.53;;;;;;;20.40;44.82;99169.78;2618565;54;20038;-66
2022/07/19 05:35:19;;;;;;;7.65;3.78;;;;;;;20.38;45.04;99177.28;2618757;54;20042;-66
2022/07/19 05:37:48;;;;;;;10.80;4.57;;;;;;;20.34;44.98;99176.16;2618857;51;20549;-65
2022/07/19 05:40:18;;;;;;;7.05;4.65;;;;;;;20.29;45.35;99179.56;2618270;54;20538;-66
2022/07/19 05:42:48;;;;;;;8.85;4.68;;;;;;;20.36;45.58;99179.38;2618286;54;20037;-66
2022/07/19 05:45:17;;;;;;;7.20;4.00;;;;;;;20.33;45.14;99177.19;2618070;54;20591;-68
2022/07/19 05:47:50;;;;;;;10.05;4.25;;;;;;;20.40;45.52;99175.97;2617391;47;20037;-65
2022/07/19 05:50:20;;;;;;;6.60;3.88;;;;;;;20.50;45.44;99176.13;2617024;47;20522;-67
2022/07/19 05:52:49;;;;;;;12.48;4.85;;;;;;;20.64;44.75;99183.81;2617825;54;20030;-67
2022/07/19 05:55:19;;;;;;;10.55;4.35;;;;;;;20.77;44.99;99186.13;2618072;54;20049;-66
2022/07/19 05:57:48;;;;;;;8.60;5.25;;;;;;;20.94;44.31;99181.53;2618100;54;20038;-67
2022/07/19 06:00:18;;;;;;;13.40;4.68;;;;;;;21.03;43.84;99177.34;2617821;54;20030;-67
2022/07/19 06:02:50;;;;;;;7.43;4.68;;;;;;;21.14;44.06;99180.94;2617978;54;20807;-69
2022/07/19 06:05:20;;;;;;;7.55;4.13;;;;;;;21.24;43.44;99183.75;2619643;54;20065;-68
2022/07/19 06:07:50;;;;;;;7.32;4.70;;;;;;;21.34;42.92;99174.19;2621043;54;20030;-69
2022/07/19 06:10:19;;;;;;;10.23;5.15;;;;;;;21.38;42.82;99176.09;2620897;54;20564;-68
2022/07/19 06:12:50;;;;;;;6.72;4.15;;;;;;;21.46;42.93;99181.03;2620684;54;20030;-69
2022/07/19 06:15:19;;;;;;;10.70;7.35;;;;;;;21.60;42.66;99183.31;2622328;54;20037;-67
2022/07/19 06:17:52;;;;;;;9.05;4.82;;;;;;;21.74;41.99;99182.63;2621478;54;20040;-67
2022/07/19 06:20:22;;;;;;;7.00;4.00;;;;;;;21.81;41.91;99179.72;2621242;54;20046;-67
2022/07/19 06:22:51;;;;;;;8.60;5.75;;;;;;;21.94;41.77;99184.66;2621794;54;20616;-69
2022/07/19 06:25:21;;;;;;;8.63;6.28;;;;;;;22.09;41.75;99184.00;2621257;54;20030;-68
2022/07/19 06:27:51;;;;;;;8.10;4.70;;;;;;;22.27;41.65;99188.16;2619727;47;20035;-67
2022/07/19 06:30:21;;;;;;;9.35;4.05;;;;;;;22.45;41.01;99185.06;2618873;54;20719;-66
2022/07/19 06:32:53;;;;;;;7.63;4.03;;;;;;;22.54;40.38;99184.56;2619000;54;20031;-67
2022/07/19 06:35:23;;;;;;;8.27;5.55;;;;;;;22.69;40.23;99177.34;2619062;54;20046;-68
2022/07/19 06:37:52;;;;;;;6.90;4.68;;;;;;;22.84;40.12;99178.50;2618880;54;20552;-66
2022/07/19 06:40:22;;;;;;;4.97;3.90;;;;;;;22.92;40.25;99176.13;2618418;54;20113;-67
2022/07/19 06:42:52;;;;;;;8.63;4.40;;;;;;;23.07;39.96;99179.97;2618774;54;20026;-67
2022/07/19 06:45:22;;;;;;;8.55;5.90;;;;;;;23.21;39.53;99176.47;2619231;39;20400;-68
2022/07/19 06:47:54;;;;;;;5.22;4.03;;;;;;;23.41;38.82;99177.59;2618777;54;20042;-68
2022/07/19 06:50:24;;;;;;;8.43;3.80;;;;;;;23.55;38.44;99172.50;2617819;54;20042;-67
2022/07/19 06:53:11;;;;;;;5.68;3.58;;;;;;;23.73;38.54;99174.72;2618702;54;20026;-66
2022/07/19 06:55:40;;;;;;;9.95;4.85;;;;;;;23.90;37.95;99177.13;2618184;54;20530;-67
2022/07/19 06:58:11;;;;;;;5.50;3.30;;;;;;;24.11;37.46;99170.63;2618665;54;20628;-67
2022/07/19 07:00:42;;;;;;;9.50;3.33;;;;;;;24.27;36.89;99171.41;2617584;47;20075;-67
2022/07/19 07:03:14;;;;;;;5.05;3.15;;;;;;;24.52;36.19;99162.44;2618659;54;20026;-67
2022/07/19 07:05:44;;;;;;;4.13;3.20;;;;;;;24.76;35.62;99161.84;2618613;54;20557;-68
2022/07/19 07:08:14;;;;;;;8.90;3.03;;;;;;;24.95;35.04;99162.84;2617782;47;20026;-67
2022/07/19 07:10:43;;;;;;;4.03;2.90;;;;;;;25.07;34.31;99155.19;2618117;54;20023;-67
2022/07/19 07:13:13;;;;;;;3.40;2.60;;;;;;;25.17;34.54;99157.06;2618374;54;20042;-67
2022/07/19 07:15:43;;;;;;;3.10;2.67;;;;;;;25.33;34.00;99163.19;2618340;54;20031;-67
2022/07/19 07:18:16;;;;;;;6.78;2.70;;;;;;;25.53;34.12;99157.63;2618470;54;20034;-67
2022/07/19 07:20:45;;;;;;;4.78;2.53;;;;;;;25.59;34.41;99159.19;2618356;54;20030;-67
2022/07/19 07:23:15;;;;;;;4.90;2.72;;;;;;;25.70;34.21;99158.03;2617971;47;20546;-67
2022/07/19 07:25:45;;;;;;;5.43;2.92;;;;;;;25.82;33.92;99155.00;2618056;54;20034;-67
2022/07/19 07:28:15;;;;;;;7.15;3.00;;;;;;;26.02;33.78;99155.91;2618725;54;20045;-67
2022/07/19 07:30:52;;;;;;;4.43;2.95;;;;;;;26.21;33.26;99153.25;2619457;54;20026;-69
2022/07/19 07:33:24;;;;;;;6.20;2.58;;;;;;;26.35;33.51;99155.00;2620057;54;20031;-70
2022/07/19 07:35:54;;;;;;;3.28;2.85;;;;;;;26.54;33.30;99146.97;2620148;47;20081;-68
2022/07/19 07:38:24;;;;;;;4.43;2.42;;;;;;;26.66;32.93;99143.84;2620088;46;20030;-69
2022/07/19 07:40:54;;;;;;;4.95;2.78;;;;;;;26.76;32.46;99149.13;2620573;54;20034;-69
2022/07/19 07:43:43;;;;;;;3.22;2.40;;;;;;;26.84;32.50;99145.78;2620969;54;20077;-68
2022/07/19 07:46:13;;;;;;;4.60;2.45;;;;;;;26.93;31.93;99149.44;2621159;39;20446;-69
2022/07/19 07:48:45;;;;;;;5.80;2.50;;;;;;;27.13;32.10;99145.69;2620320;54;20034;-70
2022/07/19 07:51:15;;;;;;;6.00;3.13;;;;;;;27.33;31.32;99141.06;2619408;47;20034;-69
2022/07/19 07:54:05;;;;;;;3.83;2.15;;;;;;;27.49;30.72;99134.31;2620084;47;20033;-69
2022/07/19 07:56:35;;;;;;;4.82;2.80;;;;;;;27.65;30.70;99137.56;2619408;46;20162;-69
2022/07/19 07:59:05;;;;;;;2.90;2.60;;;;;;;27.77;30.65;99129.00;2619463;47;20026;-69
2022/07/19 08:01:37;;;;;;;7.38;2.75;;;;;;;27.85;30.32;99128.31;2620643;54;20642;-69
2022/07/19 08:04:10;;;;;;;;;;;;;;;28.04;30.09;99123.59;2621205;54;20042;-69
2022/07/19 08:06:40;;;;;;;3.67;2.47;;;;;;;28.16;29.43;99112.25;2620735;39;20335;-69
2022/07/19 08:09:10;;;;;;;3.55;2.22;;;;;;;28.32;29.48;99105.41;2618117;54;20565;-68
2022/07/19 08:11:39;;;;;;;4.28;2.00;;;;;;;28.48;28.91;99110.56;2618076;54;20026;-67
2022/07/19 08:14:09;;;;;;;8.40;2.75;;;;;;;28.58;28.34;99104.94;2618415;54;20530;-67
2022/07/19 08:16:39;;;;;;;5.40;2.28;;;;;;;28.71;28.70;99109.53;2618120;54;20044;-66
2022/07/19 08:19:12;;;;;;;4.20;2.50;;;;;;;28.82;28.42;99107.38;2617596;54;20030;-67
2022/07/19 08:21:41;;;;;;;2.83;2.50;;;;;;;28.88;28.49;99100.75;2618046;54;20026;-67
2022/07/19 08:24:11;;;;;;;2.58;2.38;;;;;;;28.94;27.79;99104.13;2618028;54;20042;-67
2022/07/19 08:26:42;;;;;;;3.47;2.05;;;;;;;29.01;28.48;99105.38;2617964;54;20030;-67
2022/07/19 08:29:11;;;;;;;4.97;2.30;;;;;;;29.13;28.15;99102.09;2617630;54;20553;-67
2022/07/19 08:31:41;;;;;;;4.40;2.30;;;;;;;29.26;27.66;99089.56;2617968;54;20038;-67
2022/07/19 08:34:14;;;;;;;7.95;2.40;;;;;;;29.43;27.66;99091.59;2618089;54;20034;-68
2022/07/19 08:36:43;;;;;;;2.60;1.90;;;;;;;29.52;26.98;99103.38;2618358;39;20433;-68
2022/07/19 08:39:13;;;;;;;6.43;2.33;;;;;;;29.66;26.64;99095.94;2617865;54;20042;-68
2022/07/19 08:41:45;;;;;;;3.83;2.30;;;;;;;29.89;26.43;99090.47;2617595;47;20049;-69
2022/07/19 08:44:16;;;;;;;4.88;2.33;;;;;;;30.08;26.13;99097.25;2618130;46;20144;-68
2022/07/19 08:46:46;;;;;;;4.25;2.33;;;;;;;30.09;25.47;99090.72;2618332;39;20441;-67
2022/07/19 08:49:19;;;;;;;5.03;2.33;;;;;;;30.20;25.39;99091.25;2618057;39;20465;-67
2022/07/19 08:51:51;;;;;;;3.28;1.85;;;;;;;30.26;25.53;99089.22;2617859;54;20027;-67
2022/07/19 08:54:21;;;;;;;3.00;1.77;;;;;;;30.38;24.42;99085.88;2618017;54;20029;-67
2022/07/19 08:59:33;;;;;;;3.27;2.07;;;;;;;30.60;23.78;99088.47;2617681;39;20422;-68
2022/07/19 09:02:03;;;;;;;5.13;1.70;;;;;;;30.70;23.99;99084.63;2617794;54;20339;-67
2022/07/19 09:04:35;;;;;;;2.88;1.73;;;;;;;30.89;23.32;99084.38;2618091;54;20030;-67
2022/07/19 09:07:05;;;;;;;4.90;2.08;;;;;;;30.92;23.35;99086.47;2618041;54;20030;-67
2022/07/19 09:09:36;;;;;;;3.80;1.92;;;;;;;31.09;22.79;99081.81;2617593;54;20033;-67
2022/07/19 09:12:07;;;;;;;6.13;2.15;;;;;;;31.23;22.63;99083.56;2617851;54;20038;-67
2022/07/19 09:14:40;;;;;;;3.75;1.90;;;;;;;31.31;22.06;99090.97;2617903;54;20023;-67
2022/07/19 09:17:16;;;;;;;3.55;2.10;;;;;;;31.46;21.85;99078.75;2617829;54;20034;-68
2022/07/19 09:19:52;;;;;;;2.05;1.77;;;;;;;31.57;21.49;99080.03;2617497;54;20554;-67
2022/07/19 09:22:22;;;;;;;2.20;2.00;;;;;;;31.65;20.94;99081.13;2618140;39;20422;-67
2022/07/19 09:24:53;;;;;;;5.97;2.00;;;;;;;31.68;21.07;99072.28;2617908;54;20581;-69
2022/07/19 09:27:25;;;;;;;5.20;1.92;;;;;;;31.78;21.10;99080.13;2618898;39;20396;-68
2022/07/19 09:29:57;;;;;;;4.93;2.07;;;;;;;31.81;21.26;99074.81;2623650;54;20073;-68
2022/07/19 09:32:28;;;;;;;3.70;1.90;;;;;;;31.90;21.29;99068.56;2620026;39;20689;-68
2022/07/19 09:35:02;;;;;;;4.95;1.70;;;;;;;32.05;20.86;99068.00;2618339;54;20522;-68
2022/07/19 09:37:34;;;;;;;2.42;1.90;;;;;;;32.11;20.45;99066.69;2617860;54;20023;-67
2022/07/19 09:40:09;;;;;;;2.75;1.90;;;;;;;32.15;21.28;99075.03;2617663;54;20166;-67
2022/07/19 09:42:41;;;;;;;3.80;1.85;;;;;;;32.16;20.71;99071.16;2618857;54;20026;-68
2022/07/19 09:45:13;;;;;;;6.80;1.53;;;;;;;32.26;20.38;99063.41;2625003;54;20042;-67
2022/07/19 09:47:45;;;;;;;3.05;1.98;;;;;;;32.33;20.05;99064.78;2624797;54;20086;-68
2022/07/19 09:50:21;;;;;;;1.83;1.63;;;;;;;32.36;19.82;99058.66;2625508;54;20041;-67
2022/07/19 09:52:52;;;;;;;6.00;2.03;;;;;;;32.46;19.23;99053.66;2625657;54;20599;-67
2022/07/19 09:55:22;;;;;;;5.30;1.95;;;;;;;32.47;19.14;99052.53;2625513;54;20023;-69
2022/07/19 09:57:53;;;;;;;2.58;1.70;;;;;;;32.58;19.21;99049.38;2626523;54;20023;-69
2022/07/19 10:00:24;;;;;;;2.58;2.03;;;;;;;32.57;19.03;99050.53;2624877;54;20055;-69
2022/07/19 10:02:57;;;;;;;5.07;1.88;;;;;;;32.67;18.96;99045.47;2622691;54;20026;-68
2022/07/19 10:05:30;;;;;;;;;;;;;;;32.84;19.04;99051.94;2620364;54;20077;-67
2022/07/19 10:08:00;;;;;;;1.80;1.70;;;;;;;32.79;18.73;99045.53;2619022;54;19947;-67
2022/07/19 10:10:30;;;;;;;2.33;1.70;;;;;;;32.85;18.37;99048.84;2620639;54;20030;-69
2022/07/19 10:13:02;;;;;;;2.03;1.60;;;;;;;32.92;18.46;99040.94;2619468;54;20496;-66
2022/07/19 10:15:37;;;;;;;3.25;1.95;;;;;;;32.93;18.25;99033.53;2619578;54;20035;-69
2022/07/19 10:18:14;;;;;;;2.13;1.70;;;;;;;33.07;17.82;99044.19;2619742;54;20026;-71
2022/07/19 10:20:49;;;;;;;4.18;1.92;;;;;;;33.22;17.77;99035.34;2619420;54;20577;-71
2022/07/19 10:23:31;;;;;;;4.55;1.90;;;;;;;33.20;18.13;99018.47;2619634;54;20038;-68
2022/07/19 10:26:01;;;;;;;4.47;2.00;;;;;;;33.31;17.99;99022.38;2619724;54;20053;-70
2022/07/19 10:28:34;;;;;;;5.05;1.42;;;;;;;33.38;17.04;99025.34;2619527;54;20097;-70
2022/07/19 10:31:27;;;;;;;;;;;;;;;33.36;17.97;99021.38;2618891;47;20146;-71
2022/07/19 10:34:04;;;;;;;1.80;1.48;;;;;;;33.42;17.17;99017.25;2619403;54;20454;-72
2022/07/19 10:36:41;;;;;;;2.90;1.52;;;;;;;33.36;17.49;99013.94;2619437;39;20740;-68
2022/07/19 10:39:26;;;;;;;2.10;1.45;;;;;;;33.42;16.92;99006.31;2619071;39;20434;-69
2022/07/19 10:42:13;;;;;;;2.70;1.40;;;;;;;33.50;17.54;99006.25;2621121;54;20035;-68
2022/07/19 10:45:15;;;;;;;1.83;1.60;;;;;;;33.61;17.23;99008.56;2622667;54;20549;-70
2022/07/19 10:48:17;;;;;;;4.63;1.40;;;;;;;33.66;17.04;98991.88;2619908;54;20158;-67
2022/07/19 10:50:53;;;;;;;4.43;1.92;;;;;;;33.73;16.79;99003.09;2619100;47;20038;-68
2022/07/19 10:53:56;;;;;;;3.03;1.52;;;;;;;33.75;16.72;98996.09;2622837;54;20038;-68
2022/07/19 10:56:30;;;;;;;;;;;;;;;33.76;17.13;98988.66;2623186;54;20070;-68
2022/07/19 10:59:02;;;;;;;3.42;1.40;;;;;;;33.82;16.65;98989.25;2622425;54;19977;-69
2022/07/19 11:01:35;;;;;;;2.65;2.08;;;;;;;33.87;16.25;98983.53;2620978;54;20049;-68
2022/07/19 11:04:31;;;;;;;2.00;1.58;;;;;;;33.89;16.18;98973.03;2619616;54;20126;-71
2022/07/19 11:07:18;;;;;;;2.72;1.60;;;;;;;33.82;16.16;98981.84;2619849;54;20031;-69
2022/07/19 11:09:57;;;;;;;6.22;1.85;;;;;;;33.82;16.59;98970.06;2619413;54;20038;-70
2022/07/19 11:12:39;;;;;;;1.85;1.67;;;;;;;33.95;16.40;98972.44;2618795;46;20023;-73
2022/07/19 11:15:12;;;;;;;5.00;1.67;;;;;;;34.03;16.17;98967.22;2620950;54;20150;-71
2022/07/19 11:17:59;;;;;;;4.90;1.65;;;;;;;34.01;16.51;98965.63;2619453;54;20038;-68
2022/07/19 11:20:31;;;;;;;4.60;1.83;;;;;;;34.03;16.43;98964.50;2619152;54;20744;-69
2022/07/19 11:23:03;;;;;;;4.10;1.90;;;;;;;34.17;16.62;98962.16;2619434;54;20031;-69
2022/07/19 11:25:35;;;;;;;2.60;1.77;;;;;;;34.37;16.18;98960.41;2619031;54;20026;-68
2022/07/19 11:28:08;;;;;;;1.95;1.83;;;;;;;34.48;16.28;98956.06;2619653;54;20129;-69
2022/07/19 11:30:38;;;;;;;4.18;1.55;;;;;;;34.52;16.19;98951.50;2619226;54;20038;-68
2022/07/19 11:33:08;;;;;;;3.83;1.48;;;;;;;34.58;16.03;98955.59;2618897;47;20034;-69
2022/07/19 11:35:55;;;;;;;4.60;2.30;;;;;;;34.50;15.94;98951.84;2619119;54;20038;-70
2022/07/19 11:38:26;;;;;;;4.10;1.80;;;;;;;34.50;15.65;98951.06;2619596;39;20129;-68
2022/07/19 11:40:55;;;;;;;1.92;1.52;;;;;;;34.53;16.42;98947.59;2619207;54;20534;-68
2022/07/19 11:43:28;;;;;;;3.40;1.63;;;;;;;34.47;16.21;98930.56;2619382;54;20053;-70
2022/07/19 11:45:58;;;;;;;2.80;1.80;;;;;;;34.42;16.23;98935.50;2619398;54;20081;-68
2022/07/19 11:48:29;;;;;;;3.30;1.48;;;;;;;34.41;16.00;98933.88;2619796;39;20434;-68
2022/07/19 11:51:04;;;;;;;3.15;1.60;;;;;;;34.49;15.93;98935.72;2618889;54;20127;-69
2022/07/19 11:53:34;;;;;;;3.83;1.73;;;;;;;34.64;16.31;98937.72;2620052;39;20422;-69
2022/07/19 11:56:05;;;;;;;4.70;2.15;;;;;;;34.72;15.89;98930.47;2619283;54;20031;-68
2022/07/19 11:58:38;;;;;;;2.50;1.73;;;;;;;34.72;15.85;98931.28;2619756;54;20045;-68
2022/07/19 12:01:08;;;;;;;2.88;1.98;;;;;;;34.68;16.24;98924.09;2618899;54;20030;-70
2022/07/19 12:03:38;;;;;;;1.90;1.75;;;;;;;34.55;15.94;98922.56;2620077;39;20422;-69
2022/07/19 12:06:10;;;;;;;6.38;1.80;;;;;;;34.36;16.33;98921.19;2619987;54;20037;-68
2022/07/19 12:08:42;;;;;;;6.82;2.33;;;;;;;34.48;16.30;98934.91;2619818;54;20042;-70
2022/07/19 12:11:27;;;;;;;3.47;1.90;;;;;;;34.45;16.28;98915.56;2619871;54;20041;-69
2022/07/19 12:14:00;;;;;;;2.67;1.70;;;;;;;34.56;16.05;98915.91;2620956;54;20034;-67
2022/07/19 12:16:32;;;;;;;3.25;1.70;;;;;;;34.65;16.27;98905.56;2620951;54;20038;-69
2022/07/19 12:19:01;;;;;;;2.22;1.63;;;;;;;34.73;16.05;98910.09;2624800;39;20437;-67
2022/07/19 12:21:43;;;;;;;4.97;2.55;;;;;;;34.90;16.18;98901.53;2624712;54;20038;-68
2022/07/19 12:24:19;;;;;;;1.98;1.70;;;;;;;35.03;15.96;98907.00;2625148;39;20430;-68
2022/07/19 12:27:04;;;;;;;6.40;1.90;;;;;;;34.98;15.90;98903.34;2624323;47;20029;-68
2022/07/19 12:29:46;;;;;;;5.40;2.00;;;;;;;34.96;16.46;98896.59;2623747;54;20038;-68
2022/07/19 12:32:28;;;;;;;4.77;2.20;;;;;;;34.91;16.35;98891.38;2625855;39;20449;-67
2022/07/19 12:35:00;;;;;;;4.88;2.22;;;;;;;34.96;16.71;98886.41;2624217;47;20034;-68
2022/07/19 12:37:31;;;;;;;2.55;1.92;;;;;;;35.10;16.69;98886.00;2623778;54;20044;-69
2022/07/19 12:40:05;;;;;;;2.47;1.80;;;;;;;35.16;16.47;98894.81;2624015;54;20026;-70
2022/07/19 12:42:40;;;;;;;5.85;2.17;;;;;;;35.22;16.37;98893.38;2624898;54;20026;-69
2022/07/19 12:45:15;;;;;;;2.92;1.98;;;;;;;35.29;15.98;98888.06;2624650;54;20053;-71
2022/07/19 12:47:45;;;;;;;6.03;2.08;;;;;;;35.38;16.41;98879.63;2624944;39;20547;-71
2022/07/19 12:50:22;;;;;;;2.38;1.90;;;;;;;35.36;16.23;98885.50;2621475;54;20042;-71
2022/07/19 12:52:54;;;;;;;3.20;1.92;;;;;;;35.19;16.95;98872.91;2622124;54;20085;-70
2022/07/19 12:55:25;;;;;;;2.60;1.88;;;;;;;35.29;16.75;98877.06;2619314;54;20535;-71
2022/07/19 12:57:56;;;;;;;6.43;2.00;;;;;;;35.46;15.84;98879.44;2619047;54;20034;-72
2022/07/19 13:00:31;;;;;;;3.85;2.10;;;;;;;35.33;16.45;98875.19;2618928;39;20422;-70
2022/07/19 13:03:01;;;;;;;3.22;2.08;;;;;;;35.31;16.49;98876.69;2619247;39;20411;-69
2022/07/19 13:05:32;;;;;;;4.13;2.03;;;;;;;35.38;16.38;98871.38;2618149;47;20018;-70
2022/07/19 13:08:02;;;;;;;5.50;2.30;;;;;;;35.54;15.70;98865.91;2617882;47;20047;-70
2022/07/19 13:10:32;;;;;;;3.80;2.00;;;;;;;35.57;15.87;98862.44;2617859;54;20030;-69
2022/07/19 13:13:02;;;;;;;3.63;2.33;;;;;;;35.63;15.47;98850.78;2618527;54;20744;-67
2022/07/19 13:15:34;;;;;;;3.58;2.05;;;;;;;35.79;15.63;98847.22;2620431;39;20446;-70
2022/07/19 13:18:04;;;;;;;4.30;2.20;;;;;;;35.76;15.15;98836.94;2620326;54;20561;-69
2022/07/19 13:20:34;;;;;;;5.07;2.13;;;;;;;35.86;15.10;98861.13;2620114;54;20545;-70
2022/07/19 13:23:04;;;;;;;3.08;1.85;;;;;;;35.85;14.96;98843.84;2622082;54;20037;-66
2022/07/19 13:25:33;;;;;;;5.15;2.58;;;;;;;35.86;14.92;98839.91;2621994;54;20043;-67
2022/07/19 13:28:14;;;;;;;7.03;2.67;;;;;;;35.96;15.04;98835.78;2622047;54;20022;-65
2022/07/19 13:30:46;;;;;;;7.53;2.20;;;;;;;36.00;15.40;98831.19;2621460;54;20030;-66
2022/07/19 13:33:16;;;;;;;;;;;;;;;36.08;15.14;98829.38;2621825;54;20031;-67
2022/07/19 13:35:46;;;;;;;3.05;2.65;;;;;;;36.19;15.01;98827.66;2621010;54;20446;-65
2022/07/19 13:38:16;;;;;;;3.42;1.80;;;;;;;36.25;15.21;98823.44;2623130;39;20418;-65
2022/07/19 13:40:46;;;;;;;3.45;2.05;;;;;;;36.31;14.69;98818.47;2621640;47;20026;-66
2022/07/19 13:43:16;;;;;;;2.85;2.13;;;;;;;36.30;14.52;98822.38;2621272;39;20457;-68
2022/07/19 13:45:48;;;;;;;3.90;1.60;;;;;;;36.30;14.31;98812.16;2620939;54;20045;-66
2022/07/19 13:48:18;;;;;;;3.65;2.20;;;;;;;36.32;14.20;98812.59;2620958;39;20458;-65
2022/07/19 13:50:47;;;;;;;7.93;1.92;;;;;;;36.43;14.46;98810.84;2619748;54;20043;-66
2022/07/19 13:53:17;;;;;;;3.85;2.72;;;;;;;36.50;14.43;98803.88;2619158;54;20125;-66
2022/07/19 13:55:47;;;;;;;3.47;2.40;;;;;;;36.56;14.39;98799.69;2620011;39;20414;-66
2022/07/19 13:58:17;;;;;;;3.30;2.22;;;;;;;36.65;14.21;98794.72;2621141;39;20422;-66
2022/07/19 14:00:49;;;;;;;3.20;2.10;;;;;;;36.61;13.83;98796.63;2620596;54;20034;-66
2022/07/19 14:03:20;;;;;;;4.97;2.03;;;;;;;36.55;13.94;98798.09;2620291;54;20039;-67
2022/07/19 14:05:50;;;;;;;6.07;4.22;;;;;;;36.66;14.29;98790.81;2619743;47;20042;-66
2022/07/19 14:08:20;;;;;;;6.50;3.50;;;;;;;36.70;13.70;98786.97;2619865;54;20042;-65
2022/07/19 14:10:50;;;;;;;3.50;2.45;;;;;;;36.61;13.71;98786.41;2619522;54;20049;-66
2022/07/19 14:13:20;;;;;;;5.22;2.00;;;;;;;36.54;14.70;98789.03;2620228;39;20395;-65
2022/07/19 14:16:08;;;;;;;5.22;2.22;;;;;;;36.58;14.62;98781.66;2619800;54;20045;-70
2022/07/19 14:18:38;;;;;;;4.22;2.25;;;;;;;36.70;14.42;98786.16;2619061;54;20031;-65
2022/07/19 14:21:07;;;;;;;8.15;2.08;;;;;;;36.75;14.68;98782.31;2619791;39;20425;-66
2022/07/19 14:23:37;;;;;;;2.13;1.92;;;;;;;36.88;14.07;98775.44;2619830;54;20046;-66
2022/07/19 14:26:07;;;;;;;4.00;2.20;;;;;;;36.93;14.01;98777.91;2619604;54;20113;-65
2022/07/19 14:28:37;;;;;;;2.33;2.13;;;;;;;36.92;13.85;98770.81;2618905;54;20103;-64
2022/07/19 14:31:15;;;;;;;3.38;2.20;;;;;;;36.93;14.07;98764.94;2618562;54;20061;-67
2022/07/19 14:33:45;;;;;;;4.50;2.40;;;;;;;36.94;14.11;98765.72;2618799;54;20038;-66
2022/07/19 14:36:15;;;;;;;6.03;2.15;;;;;;;37.10;13.05;98760.88;2618911;54;20125;-66
2022/07/19 14:38:45;;;;;;;2.65;1.98;;;;;;;37.16;12.90;98756.66;2618265;54;20046;-67
2022/07/19 14:41:17;;;;;;;5.13;2.30;;;;;;;37.14;13.71;98769.19;2619581;54;20034;-67
2022/07/19 14:43:54;;;;;;;6.68;2.03;;;;;;;37.14;13.64;98767.22;2619515;54;20034;-65
2022/07/19 14:46:26;;;;;;;3.83;2.05;;;;;;;37.08;13.65;98762.41;2618913;54;20037;-67
2022/07/19 14:48:56;;;;;;;2.53;2.00;;;;;;;36.96;13.76;98751.59;2620159;54;20037;-65
2022/07/19 14:51:26;;;;;;;5.75;1.90;;;;;;;36.99;13.49;98754.41;2619080;54;20038;-66
2022/07/19 18:14:38;;;;;;;8.23;3.35;;;;;;;39.44;11.10;98618.44;2589300;39;21511;-66
2022/07/19 18:17:08;;;;;;;5.38;2.95;;;;;;;38.75;11.32;98624.78;2618004;54;20034;-65
2022/07/19 18:19:38;;;;;;;4.45;2.60;;;;;;;38.05;11.84;98623.81;2619113;39;20425;-65
2022/07/19 18:22:08;;;;;;;3.63;2.95;;;;;;;37.43;12.64;98625.09;2619535;31;20523;-66
2022/07/19 18:24:38;;;;;;;4.13;3.10;;;;;;;36.83;12.85;98624.28;2619138;54;20038;-66
2022/07/19 18:27:17;;;;;;;5.05;3.28;;;;;;;36.30;13.59;98627.78;2619486;54;20038;-68
2022/07/19 18:29:49;;;;;;;4.00;3.17;;;;;;;35.90;13.67;98628.22;2618760;54;20030;-65
2022/07/19 18:32:20;;;;;;;5.10;3.20;;;;;;;35.60;14.32;98628.84;2619557;54;20033;-67
2022/07/19 18:34:49;;;;;;;7.88;3.10;;;;;;;35.34;14.15;98631.44;2620428;54;20042;-65
2022/07/19 18:37:24;;;;;;;6.18;3.08;;;;;;;35.16;14.45;98631.06;2620015;39;20425;-67
2022/07/19 18:39:54;;;;;;;5.85;2.90;;;;;;;34.97;14.82;98638.09;2619836;54;20143;-67
2022/07/19 18:42:27;;;;;;;8.00;3.50;;;;;;;34.74;15.12;98628.91;2620010;47;20530;-68
2022/07/19 18:44:59;;;;;;;8.32;3.22;;;;;;;34.55;15.49;98637.13;2620167;47;20026;-67
2022/07/19 18:47:29;;;;;;;7.40;3.17;;;;;;;34.41;15.67;98632.03;2618998;54;20029;-66
2022/07/19 18:49:59;;;;;;;14.07;3.30;;;;;;;34.34;15.60;98640.13;2619856;54;20042;-66
2022/07/19 18:52:30;;;;;;;6.90;3.38;;;;;;;34.26;16.04;98642.66;2619783;54;20030;-65
2022/07/19 18:54:59;;;;;;;5.65;3.70;;;;;;;34.18;15.87;98634.63;2619938;54;20114;-66
2022/07/19 18:57:29;;;;;;;5.03;3.60;;;;;;;34.05;16.20;98641.31;2619969;54;20031;-67
2022/07/19 19:00:02;;;;;;;8.32;3.88;;;;;;;33.93;16.42;98644.91;2619877;47;20086;-67
2022/07/19 19:02:31;;;;;;;3.95;3.33;;;;;;;33.79;16.86;98639.84;2624386;47;20022;-67
2022/07/19 19:05:01;;;;;;;12.43;4.13;;;;;;;33.70;16.60;98639.19;2624927;54;20057;-67
2022/07/19 19:07:31;;;;;;;9.38;3.72;;;;;;;33.62;16.67;98640.16;2625271;54;20041;-67
2022/07/19 19:10:01;;;;;;;6.65;4.38;;;;;;;33.57;16.97;98640.41;2624959;54;20039;-69
2022/07/19 19:12:30;;;;;;;6.85;4.30;;;;;;;33.45;16.97;98646.72;2624758;47;20077;-67
2022/07/19 19:15:03;;;;;;;6.78;4.43;;;;;;;33.34;17.95;98640.09;2624963;54;20065;-66
2022/07/19 19:17:33;;;;;;;8.75;3.85;;;;;;;33.22;17.65;98644.47;2623022;47;20026;-65
2022/07/19 19:20:02;;;;;;;10.00;3.83;;;;;;;33.01;18.02;98646.56;2624248;54;20050;-66
2022/07/19 19:22:32;;;;;;;8.90;4.10;;;;;;;32.84;18.39;98644.88;2624951;54;20033;-68